Time,TemperatureF,DewpointF,PressureIn,WindDirection,WindDirectionDegrees,WindSpeedMPH,WindSpeedGustMPH,Humidity,HourlyPrecipIn,Conditions,Clouds,dailyrainin,SoftwareType,DateUTC
2013-04-22 00:00:00,31.8,15.1,30.60,SSE,153,0.0,2.5,50,0.00,,,0.00,VWS V14.00,2013-04-22 04:00:00,
2013-04-22 00:02:00,32.4,15.8,30.60,SSE,148,0.0,5.7,50,0.00,,,0.00,VWS V14.00,2013-04-22 04:02:00,
2013-04-22 00:03:00,31.8,15.4,30.60,SSE,153,0.0,2.5,50,0.00,,,0.00,VWS V14.00,2013-04-22 04:03:00,
2013-04-22 00:06:00,32.5,15.6,30.60,SE,142,3.4,5.7,49,0.00,,,0.00,VWS V14.00,2013-04-22 04:06:00,
2013-04-22 00:08:00,32.4,15.5,30.60,ESE,121,0.0,7.5,49,0.00,,,0.00,VWS V14.00,2013-04-22 04:08:00,
2013-04-22 00:09:00,31.8,15.9,30.60,SSE,153,0.0,2.5,51,0.00,,,0.00,VWS V14.00,2013-04-22 04:09:00,
2013-04-22 00:10:00,33.2,18.2,30.20,NW,315,7.6,12.2,54,0.00,,,0.00,VWS V14.00,2013-04-22 04:10:00,
2013-04-22 00:11:00,32.4,15.4,30.60,SE,136,3.5,7.5,49,0.00,,,0.00,VWS V14.00,2013-04-22 04:11:00,
2013-04-22 00:12:00,31.8,16.1,30.60,SSE,153,0.0,2.5,52,0.00,,,0.00,VWS V14.00,2013-04-22 04:12:00,
2013-04-22 00:15:00,31.8,16.3,30.60,SSE,153,0.0,2.5,52,0.00,,,0.00,VWS V14.00,2013-04-22 04:15:00,
2013-04-22 00:17:00,32.4,15.5,30.60,SE,139,0.0,0.0,49,0.00,,,0.00,VWS V14.00,2013-04-22 04:17:00,
2013-04-22 00:18:00,31.6,16.2,30.60,SSE,158,0.0,4.8,52,0.00,,,0.00,VWS V14.00,2013-04-22 04:18:00,
2013-04-22 00:20:00,33.2,18.6,30.20,NNW,330,5.8,12.7,54,0.00,,,0.00,VWS V14.00,2013-04-22 04:20:00,
2013-04-22 00:21:00,31.9,16.3,30.60,SE,124,4.3,10.7,52,0.00,,,0.00,VWS V14.00,2013-04-22 04:21:00,
2013-04-22 00:23:00,32.3,15.3,30.60,SE,132,0.0,6.3,49,0.00,,,0.00,VWS V14.00,2013-04-22 04:23:00,
2013-04-22 00:24:00,32.0,16.3,30.60,ESE,120,0.0,10.7,52,0.00,,,0.00,VWS V14.00,2013-04-22 04:24:00,
2013-04-22 00:27:00,32.1,16.2,30.59,SSE,148,6.8,10.7,52,0.00,,,0.00,VWS V14.00,2013-04-22 04:27:00,
2013-04-22 00:29:00,32.4,15.1,30.60,ESE,118,0.0,7.0,48,0.00,,,0.00,VWS V14.00,2013-04-22 04:29:00,
2013-04-22 00:30:00,32.3,16.3,30.60,SE,143,3.4,10.7,51,0.00,,,0.00,VWS V14.00,2013-04-22 04:30:00,
2013-04-22 00:33:00,32.3,16.1,30.60,SE,136,0.0,10.7,51,0.00,,,0.00,VWS V14.00,2013-04-22 04:33:00,
2013-04-22 00:35:00,32.5,15.2,30.61,SE,139,0.0,7.0,48,0.00,,,0.00,VWS V14.00,2013-04-22 04:35:00,
2013-04-22 00:36:00,32.5,16.1,30.59,SSE,153,0.0,12.5,50,0.00,,,0.00,VWS V14.00,2013-04-22 04:36:00,
2013-04-22 00:39:00,32.7,16.2,30.60,ESE,112,0.0,12.5,50,0.00,,,0.00,VWS V14.00,2013-04-22 04:39:00,
2013-04-22 00:40:00,33.0,19.6,30.21,NNW,345,5.5,11.3,58,0.00,,,0.00,VWS V14.00,2013-04-22 04:40:00,
2013-04-22 00:42:00,32.3,15.0,30.60,SE,145,0.0,4.7,48,0.00,,,0.00,VWS V14.00,2013-04-22 04:42:00,
2013-04-22 00:45:00,33.1,15.9,30.59,SE,136,0.0,12.5,49,0.00,,,0.00,VWS V14.00,2013-04-22 04:45:00,
2013-04-22 00:46:00,32.1,15.1,30.60,SSE,167,0.0,4.7,49,0.00,,,0.00,VWS V14.00,2013-04-22 04:46:00,
2013-04-22 00:49:00,33.2,15.8,30.60,SE,128,0.0,12.5,48,0.00,,,0.00,VWS V14.00,2013-04-22 04:49:00,
2013-04-22 00:50:00,32.9,20.0,30.22,NNW,336,4.8,10.7,58,0.00,,,0.00,VWS V14.00,2013-04-22 04:50:00,
2013-04-22 00:52:00,33.3,15.7,30.60,SE,128,0.0,12.5,48,0.00,,,0.00,VWS V14.00,2013-04-22 04:52:00,
2013-04-22 00:54:00,31.7,15.0,30.60,SSE,153,0.0,2.5,50,0.00,,,0.00,VWS V14.00,2013-04-22 04:54:00,
2013-04-22 00:55:00,33.4,15.6,30.60,SE,138,4.8,12.5,47,0.00,,,0.00,VWS V14.00,2013-04-22 04:55:00,
2013-04-22 00:58:00,33.5,15.6,30.59,ESE,121,0.0,12.5,47,0.00,,,0.00,VWS V14.00,2013-04-22 04:58:00,
2013-04-22 01:01:00,33.5,15.5,30.59,SSE,149,3.0,12.5,47,0.00,,,0.00,VWS V14.00,2013-04-22 05:01:00,
2013-04-22 01:04:00,33.5,15.5,30.59,SE,138,0.0,12.5,47,0.00,,,0.00,VWS V14.00,2013-04-22 05:04:00,
2013-04-22 01:07:00,33.4,15.4,30.59,SSE,150,0.0,12.5,47,0.00,,,0.00,VWS V14.00,2013-04-22 05:07:00,
2013-04-22 01:10:00,33.5,15.4,30.59,SSE,149,0.0,12.5,47,0.00,,,0.00,VWS V14.00,2013-04-22 05:10:00,
2013-04-22 01:13:00,33.4,15.2,30.59,ESE,117,0.0,12.5,47,0.00,,,0.00,VWS V14.00,2013-04-22 05:13:00,
2013-04-22 01:16:00,33.4,15.2,30.60,ESE,117,0.0,12.5,47,0.00,,,0.00,VWS V14.00,2013-04-22 05:16:00,
2013-04-22 01:19:00,33.4,15.2,30.60,ESE,117,0.0,12.5,47,0.00,,,0.00,VWS V14.00,2013-04-22 05:19:00,
2013-04-22 01:22:00,33.4,15.1,30.60,ESE,117,0.0,12.5,46,0.00,,,0.00,VWS V14.00,2013-04-22 05:22:00,
2013-04-22 01:25:00,33.4,15.1,30.59,ESE,117,0.0,12.5,46,0.00,,,0.00,VWS V14.00,2013-04-22 05:25:00,
2013-04-22 01:28:00,33.4,15.2,30.60,SE,142,0.0,12.5,47,0.00,,,0.00,VWS V14.00,2013-04-22 05:28:00,
2013-04-22 01:31:00,33.4,15.2,30.59,SE,142,0.0,12.5,47,0.00,,,0.00,VWS V14.00,2013-04-22 05:31:00,
2013-04-22 01:34:00,33.2,15.2,30.59,East,100,0.0,12.5,47,0.00,,,0.00,VWS V14.00,2013-04-22 05:34:00,
2013-04-22 01:37:00,33.2,15.3,30.59,ESE,110,0.0,12.5,47,0.00,,,0.00,VWS V14.00,2013-04-22 05:37:00,
2013-04-22 01:40:00,33.2,15.3,30.59,SE,125,0.0,12.5,47,0.00,,,0.00,VWS V14.00,2013-04-22 05:40:00,
2013-04-22 01:43:00,33.1,15.3,30.59,ESE,120,0.0,12.5,48,0.00,,,0.00,VWS V14.00,2013-04-22 05:43:00,
2013-04-22 01:46:00,33.2,15.6,30.59,SE,138,3.5,12.5,48,0.00,,,0.00,VWS V14.00,2013-04-22 05:46:00,
2013-04-22 01:49:00,33.1,15.7,30.59,SE,128,0.0,12.5,48,0.00,,,0.00,VWS V14.00,2013-04-22 05:49:00,
2013-04-22 01:52:00,33.2,15.8,30.59,SSE,158,0.0,12.5,48,0.00,,,0.00,VWS V14.00,2013-04-22 05:52:00,
2013-04-22 01:55:00,33.2,15.8,30.59,SE,132,0.0,12.5,48,0.00,,,0.00,VWS V14.00,2013-04-22 05:55:00,
2013-04-22 01:58:00,33.1,15.6,30.59,East,100,0.0,12.5,48,0.00,,,0.00,VWS V14.00,2013-04-22 05:58:00,
2013-04-22 02:01:00,33.2,15.6,30.59,ESE,120,0.0,12.5,48,0.00,,,0.00,VWS V14.00,2013-04-22 06:01:00,
2013-04-22 02:04:00,33.2,15.5,30.59,East,96,0.0,12.5,48,0.00,,,0.00,VWS V14.00,2013-04-22 06:04:00,
2013-04-22 02:07:00,33.1,15.4,30.59,SSE,150,0.0,12.5,48,0.00,,,0.00,VWS V14.00,2013-04-22 06:07:00,
2013-04-22 02:10:00,33.2,15.5,30.59,NE,49,0.0,12.5,48,0.00,,,0.00,VWS V14.00,2013-04-22 06:10:00,
2013-04-22 02:13:00,33.1,15.6,30.60,SSW,194,0.0,12.5,48,0.00,,,0.00,VWS V14.00,2013-04-22 06:13:00,
2013-04-22 02:16:00,33.0,15.6,30.60,SSE,149,0.0,12.5,48,0.00,,,0.00,VWS V14.00,2013-04-22 06:16:00,
2013-04-22 02:19:00,33.1,15.5,30.59,ESE,110,0.0,12.5,48,0.00,,,0.00,VWS V14.00,2013-04-22 06:19:00,
2013-04-22 02:22:00,33.1,15.4,30.60,SE,142,3.4,12.5,48,0.00,,,0.00,VWS V14.00,2013-04-22 06:22:00,
2013-04-22 02:25:00,33.2,15.5,30.60,SE,145,0.0,12.5,48,0.00,,,0.00,VWS V14.00,2013-04-22 06:25:00,
2013-04-22 02:28:00,33.3,15.4,30.59,SSE,152,3.2,12.5,47,0.00,,,0.00,VWS V14.00,2013-04-22 06:28:00,
2013-04-22 02:31:00,33.5,15.4,30.59,ESE,118,4.2,12.5,47,0.00,,,0.00,VWS V14.00,2013-04-22 06:31:00,
2013-04-22 02:34:00,33.7,15.4,30.59,SSE,160,3.3,12.5,47,0.00,,,0.00,VWS V14.00,2013-04-22 06:34:00,
2013-04-22 02:37:00,33.8,15.3,30.59,SE,146,6.2,13.9,46,0.00,,,0.00,VWS V14.00,2013-04-22 06:37:00,
2013-04-22 02:40:00,33.9,15.2,30.59,SE,131,3.5,13.9,46,0.00,,,0.00,VWS V14.00,2013-04-22 06:40:00,
2013-04-22 02:43:00,34.0,15.2,30.59,South,180,4.4,13.9,46,0.00,,,0.00,VWS V14.00,2013-04-22 06:43:00,
2013-04-22 02:46:00,34.1,15.1,30.59,SE,143,4.9,13.9,45,0.00,,,0.00,VWS V14.00,2013-04-22 06:46:00,
2013-04-22 02:49:00,34.2,15.0,30.59,South,170,9.2,13.9,45,0.00,,,0.00,VWS V14.00,2013-04-22 06:49:00,
2013-04-22 02:52:00,34.4,15.2,30.59,ESE,117,4.8,13.9,45,0.00,,,0.00,VWS V14.00,2013-04-22 06:52:00,
2013-04-22 02:55:00,34.7,15.4,30.59,SSE,158,8.4,13.9,45,0.00,,,0.00,VWS V14.00,2013-04-22 06:55:00,
2013-04-22 02:58:00,34.7,15.4,30.59,SE,146,7.5,13.9,45,0.00,,,0.00,VWS V14.00,2013-04-22 06:58:00,
2013-04-22 03:01:00,34.9,15.5,30.59,SSW,194,6.9,13.9,45,0.00,,,0.00,VWS V14.00,2013-04-22 07:01:00,
2013-04-22 03:04:00,35.0,15.4,30.59,ESE,120,5.3,13.9,44,0.00,,,0.00,VWS V14.00,2013-04-22 07:04:00,
2013-04-22 03:07:00,35.2,15.4,30.59,SE,138,7.7,13.9,44,0.00,,,0.00,VWS V14.00,2013-04-22 07:07:00,
2013-04-22 03:10:00,35.2,15.3,30.59,ESE,121,0.0,13.9,44,0.00,,,0.00,VWS V14.00,2013-04-22 07:10:00,
2013-04-22 03:13:00,35.3,15.4,30.59,SE,127,2.8,13.9,44,0.00,,,0.00,VWS V14.00,2013-04-22 07:13:00,
2013-04-22 03:16:00,35.1,15.2,30.59,ESE,104,4.5,13.9,44,0.00,,,0.00,VWS V14.00,2013-04-22 07:16:00,
2013-04-22 03:19:00,35.2,15.2,30.59,ESE,114,0.0,13.9,44,0.00,,,0.00,VWS V14.00,2013-04-22 07:19:00,
2013-04-22 03:22:00,35.2,15.3,30.59,ESE,114,0.0,13.9,44,0.00,,,0.00,VWS V14.00,2013-04-22 07:22:00,
2013-04-22 03:25:00,35.2,15.3,30.59,ESE,114,0.0,13.9,44,0.00,,,0.00,VWS V14.00,2013-04-22 07:25:00,
2013-04-22 03:28:00,34.9,15.2,30.59,South,177,3.0,13.9,44,0.00,,,0.00,VWS V14.00,2013-04-22 07:28:00,
2013-04-22 03:31:00,34.7,15.1,30.59,ESE,114,3.0,13.9,44,0.00,,,0.00,VWS V14.00,2013-04-22 07:31:00,
2013-04-22 03:34:00,34.6,15.3,30.59,ESE,114,0.0,13.9,45,0.00,,,0.00,VWS V14.00,2013-04-22 07:34:00,
2013-04-22 03:37:00,34.2,15.2,30.59,ESE,114,0.0,13.9,45,0.00,,,0.00,VWS V14.00,2013-04-22 07:37:00,
2013-04-22 03:40:00,34.1,15.4,30.59,SE,139,3.0,13.9,46,0.00,,,0.00,VWS V14.00,2013-04-22 07:40:00,
2013-04-22 03:43:00,34.1,15.5,30.59,SE,132,2.9,13.9,46,0.00,,,0.00,VWS V14.00,2013-04-22 07:43:00,
2013-04-22 03:46:00,34.1,15.6,30.59,SE,143,4.3,13.9,46,0.00,,,0.00,VWS V14.00,2013-04-22 07:46:00,
2013-04-22 03:49:00,34.0,15.6,30.59,SSE,163,0.0,13.9,46,0.00,,,0.00,VWS V14.00,2013-04-22 07:49:00,
2013-04-22 03:52:00,34.1,15.7,30.60,SSE,155,0.0,13.9,46,0.00,,,0.00,VWS V14.00,2013-04-22 07:52:00,
2013-04-22 03:55:00,34.2,15.8,30.60,SE,146,0.0,13.9,46,0.00,,,0.00,VWS V14.00,2013-04-22 07:55:00,
2013-04-22 03:58:00,34.2,15.8,30.60,SE,139,0.0,13.9,46,0.00,,,0.00,VWS V14.00,2013-04-22 07:58:00,
2013-04-22 04:01:00,34.2,15.8,30.60,SE,139,0.0,13.9,46,0.00,,,0.00,VWS V14.00,2013-04-22 08:01:00,
2013-04-22 04:04:00,34.2,15.8,30.60,ESE,121,0.0,13.9,46,0.00,,,0.00,VWS V14.00,2013-04-22 08:04:00,
2013-04-22 04:07:00,34.2,15.8,30.60,SE,135,0.0,13.9,46,0.00,,,0.00,VWS V14.00,2013-04-22 08:07:00,
2013-04-22 04:11:00,34.2,15.8,30.60,SE,143,3.3,13.9,46,0.00,,,0.00,VWS V14.00,2013-04-22 08:11:00,
2013-04-22 04:14:00,34.1,15.6,30.60,East,101,0.0,13.9,46,0.00,,,0.00,VWS V14.00,2013-04-22 08:14:00,
2013-04-22 04:17:00,34.2,15.7,30.60,ESE,108,0.0,13.9,46,0.00,,,0.00,VWS V14.00,2013-04-22 08:17:00,
2013-04-22 04:20:00,34.2,15.6,30.60,East,91,0.0,13.9,46,0.00,,,0.00,VWS V14.00,2013-04-22 08:20:00,
2013-04-22 04:29:00,34.2,15.5,30.61,SE,124,0.0,13.9,46,0.00,,,0.00,VWS V14.00,2013-04-22 08:29:00,
2013-04-22 04:32:00,34.3,15.6,30.61,SSE,153,0.0,13.9,46,0.00,,,0.00,VWS V14.00,2013-04-22 08:32:00,
2013-04-22 04:35:00,34.3,15.6,30.61,SSE,153,0.0,13.9,46,0.00,,,0.00,VWS V14.00,2013-04-22 08:35:00,
2013-04-22 04:38:00,34.2,15.7,30.61,SE,125,0.0,13.9,46,0.00,,,0.00,VWS V14.00,2013-04-22 08:38:00,
2013-04-22 04:44:00,33.9,16.2,30.61,SE,146,2.9,13.9,48,0.00,,,0.00,VWS V14.00,2013-04-22 08:44:00,
2013-04-22 04:56:00,33.5,16.1,30.62,South,173,5.0,13.9,48,0.00,,,0.00,VWS V14.00,2013-04-22 08:56:00,
2013-04-22 05:14:00,34.4,15.6,30.62,ESE,105,0.0,13.9,46,0.00,,,0.00,VWS V14.00,2013-04-22 09:14:00,
2013-04-22 05:19:00,34.3,15.6,30.61,SSE,148,0.0,13.9,46,0.00,,,0.00,VWS V14.00,2013-04-22 09:19:00,
2013-04-22 05:23:00,34.5,15.5,30.62,ESE,111,4.3,13.9,45,0.00,,,0.00,VWS V14.00,2013-04-22 09:23:00,
2013-04-22 05:29:00,34.7,15.6,30.62,ESE,107,3.4,13.9,45,0.00,,,0.00,VWS V14.00,2013-04-22 09:29:00,
2013-04-22 05:35:00,34.7,15.5,30.63,SE,134,3.5,13.9,45,0.00,,,0.00,VWS V14.00,2013-04-22 09:35:00,
2013-04-22 05:37:00,34.1,16.1,30.62,SE,125,0.0,13.9,47,0.00,,,0.00,VWS V14.00,2013-04-22 09:37:00,
2013-04-22 05:38:00,34.7,15.4,30.63,SSE,158,4.7,13.9,45,0.00,,,0.00,VWS V14.00,2013-04-22 09:38:00,
2013-04-22 05:43:00,33.8,16.3,30.61,SSE,149,4.7,13.9,48,0.00,,,0.00,VWS V14.00,2013-04-22 09:43:00,
2013-04-22 05:49:00,33.5,16.2,30.61,SE,132,3.4,13.9,48,0.00,,,0.00,VWS V14.00,2013-04-22 09:49:00,
2013-04-22 05:55:00,33.7,16.0,30.62,SSE,150,3.1,13.9,48,0.00,,,0.00,VWS V14.00,2013-04-22 09:55:00,
2013-04-22 06:01:00,34.0,15.8,30.62,South,177,3.1,13.9,47,0.00,,,0.00,VWS V14.00,2013-04-22 10:01:00,
2013-04-22 06:07:00,34.2,15.5,30.62,East,98,2.1,13.9,46,0.00,,,0.00,VWS V14.00,2013-04-22 10:07:00,
2013-04-22 06:13:00,34.4,15.6,30.62,SE,127,0.0,13.9,46,0.00,,,0.00,VWS V14.00,2013-04-22 10:13:00,
2013-04-22 06:22:00,34.6,15.5,30.62,ESE,108,0.0,13.9,45,0.00,,,0.00,VWS V14.00,2013-04-22 10:22:00,
2013-04-22 06:28:00,34.6,15.6,30.62,SE,146,2.2,13.9,45,0.00,,,0.00,VWS V14.00,2013-04-22 10:28:00,
2013-04-22 06:37:00,34.7,15.2,30.63,SE,142,5.8,13.9,44,0.00,,,0.00,VWS V14.00,2013-04-22 10:37:00,
2013-04-22 06:43:00,34.7,15.1,30.63,East,87,0.0,13.9,44,0.00,,,0.00,VWS V14.00,2013-04-22 10:43:00,
2013-04-22 06:49:00,34.9,15.1,30.63,SE,136,6.2,13.9,44,0.00,,,0.00,VWS V14.00,2013-04-22 10:49:00,
2013-04-22 06:55:00,35.2,15.2,30.63,ESE,117,3.4,13.9,43,0.00,,,0.00,VWS V14.00,2013-04-22 10:55:00,
2013-04-22 07:01:00,35.3,15.0,30.63,ESE,120,0.0,13.9,43,0.00,,,0.00,VWS V14.00,2013-04-22 11:01:00,
2013-04-22 07:07:00,35.5,14.9,30.64,NE,44,4.8,14.3,42,0.00,,,0.00,VWS V14.00,2013-04-22 11:07:00,
2013-04-22 07:13:00,35.8,15.1,30.64,ESE,105,4.3,14.3,42,0.00,,,0.00,VWS V14.00,2013-04-22 11:13:00,
2013-04-22 07:19:00,35.9,14.8,30.64,SE,146,7.2,14.3,42,0.00,,,0.00,VWS V14.00,2013-04-22 11:19:00,
2013-04-22 07:25:00,36.4,14.9,30.64,SSE,159,6.5,14.3,41,0.00,,,0.00,VWS V14.00,2013-04-22 11:25:00,
2013-04-22 07:30:00,40.1,15.1,30.64,SE,141,4.7,15.6,36,0.00,,,0.00,VWS V14.00,2013-04-22 11:30:00,
2013-04-22 07:32:00,36.8,14.8,30.64,SE,129,7.3,15.6,40,0.00,,,0.00,VWS V14.00,2013-04-22 11:32:00,
2013-04-22 07:38:00,37.2,14.9,30.64,East,96,0.0,15.6,40,0.00,,,0.00,VWS V14.00,2013-04-22 11:38:00,
2013-04-22 07:44:00,37.4,14.8,30.64,NE,34,5.0,15.6,39,0.00,,,0.00,VWS V14.00,2013-04-22 11:44:00,
2013-04-22 07:50:00,37.8,14.8,30.64,ESE,120,5.4,15.6,39,0.00,,,0.00,VWS V14.00,2013-04-22 11:50:00,
2013-04-22 07:56:00,38.1,14.8,30.64,ESE,122,5.2,15.6,38,0.00,,,0.00,VWS V14.00,2013-04-22 11:56:00,
2013-04-22 08:00:00,42.1,14.8,30.64,ENE,59,4.6,15.6,33,0.00,,,0.00,VWS V14.00,2013-04-22 12:00:00,
2013-04-22 08:02:00,38.5,14.8,30.64,East,91,3.5,15.6,37,0.00,,,0.00,VWS V14.00,2013-04-22 12:02:00,
2013-04-22 08:08:00,38.7,14.8,30.64,SSE,162,3.0,15.6,37,0.00,,,0.00,VWS V14.00,2013-04-22 12:08:00,
2013-04-22 08:14:00,39.1,15.1,30.64,East,101,3.5,15.6,37,0.00,,,0.00,VWS V14.00,2013-04-22 12:14:00,
2013-04-22 08:20:00,39.5,15.1,30.64,SE,125,0.0,15.6,36,0.00,,,0.00,VWS V14.00,2013-04-22 12:20:00,
2013-04-22 08:29:00,40.0,14.7,30.64,SE,142,10.4,15.6,35,0.00,,,0.00,VWS V14.00,2013-04-22 12:29:00,
2013-04-22 08:35:00,40.6,14.8,30.64,ENE,66,0.0,15.6,35,0.00,,,0.00,VWS V14.00,2013-04-22 12:35:00,
2013-04-22 08:41:00,40.8,14.8,30.64,ESE,121,5.8,15.6,34,0.00,,,0.00,VWS V14.00,2013-04-22 12:41:00,
2013-04-22 08:47:00,41.3,15.2,30.64,East,98,0.0,15.6,34,0.00,,,0.00,VWS V14.00,2013-04-22 12:47:00,
2013-04-22 08:53:00,41.9,14.9,30.64,SE,124,0.0,15.6,33,0.00,,,0.00,VWS V14.00,2013-04-22 12:53:00,
2013-04-22 08:59:00,42.3,14.8,30.64,East,98,0.0,15.6,32,0.00,,,0.00,VWS V14.00,2013-04-22 12:59:00,
2013-04-22 09:05:00,43.0,15.2,30.64,East,91,0.0,15.6,32,0.00,,,0.00,VWS V14.00,2013-04-22 13:05:00,
2013-04-22 09:11:00,43.2,14.6,30.64,East,90,0.0,15.6,31,0.00,,,0.00,VWS V14.00,2013-04-22 13:11:00,
2013-04-22 09:17:00,43.7,15.0,30.64,SSE,156,4.5,15.6,31,0.00,,,0.00,VWS V14.00,2013-04-22 13:17:00,
2013-04-22 09:23:00,43.8,14.7,30.64,SE,135,0.0,15.6,30,0.00,,,0.00,VWS V14.00,2013-04-22 13:23:00,
2013-04-22 09:29:00,43.9,14.4,30.64,SE,145,6.5,15.6,30,0.00,,,0.00,VWS V14.00,2013-04-22 13:29:00,
2013-04-22 09:35:00,43.9,14.6,30.64,SSE,153,0.0,15.6,30,0.00,,,0.00,VWS V14.00,2013-04-22 13:35:00,
2013-04-22 09:41:00,44.1,15.0,30.64,ESE,105,0.0,15.6,30,0.00,,,0.00,VWS V14.00,2013-04-22 13:41:00,
2013-04-22 09:47:00,44.2,14.6,30.64,SSE,162,2.9,15.6,30,0.00,,,0.00,VWS V14.00,2013-04-22 13:47:00,
2013-04-22 09:53:00,44.3,14.8,30.64,SE,127,5.3,15.6,30,0.00,,,0.00,VWS V14.00,2013-04-22 13:53:00,
2013-04-22 09:59:00,44.7,15.3,30.64,SE,128,5.9,15.6,30,0.00,,,0.00,VWS V14.00,2013-04-22 13:59:00,
2013-04-22 10:05:00,45.0,15.2,30.64,ESE,120,6.6,15.6,30,0.00,,,0.00,VWS V14.00,2013-04-22 14:05:00,
2013-04-22 10:11:00,45.3,15.2,30.64,NE,35,5.4,15.6,29,0.00,,,0.00,VWS V14.00,2013-04-22 14:11:00,
2013-04-22 10:17:00,45.7,15.2,30.64,East,84,0.0,15.6,29,0.00,,,0.00,VWS V14.00,2013-04-22 14:17:00,
2013-04-22 10:23:00,45.9,14.6,30.64,SE,139,0.0,15.6,28,0.00,,,0.00,VWS V14.00,2013-04-22 14:23:00,
2013-04-22 10:29:00,45.9,14.7,30.65,East,94,3.0,15.6,28,0.00,,,0.00,VWS V14.00,2013-04-22 14:29:00,
2013-04-22 10:35:00,46.3,15.2,30.64,ENE,68,0.0,15.6,28,0.00,,,0.00,VWS V14.00,2013-04-22 14:35:00,
2013-04-22 10:41:00,46.7,14.8,30.65,East,91,0.0,15.6,27,0.00,,,0.00,VWS V14.00,2013-04-22 14:41:00,
2013-04-22 10:48:00,47.0,14.3,30.65,SSE,163,5.3,15.6,26,0.00,,,0.00,VWS V14.00,2013-04-22 14:48:00,
2013-04-22 10:54:00,47.0,13.8,30.65,NE,42,3.5,15.6,26,0.00,,,0.00,VWS V14.00,2013-04-22 14:54:00,
2013-04-22 11:00:00,47.4,14.3,30.65,South,179,6.0,15.6,26,0.00,,,0.00,VWS V14.00,2013-04-22 15:00:00,
2013-04-22 11:06:00,47.6,14.2,30.65,SSE,155,8.8,15.6,26,0.00,,,0.00,VWS V14.00,2013-04-22 15:06:00,
2013-04-22 11:12:00,47.5,13.2,30.65,SE,136,3.5,15.6,25,0.00,,,0.00,VWS V14.00,2013-04-22 15:12:00,
2013-04-22 11:18:00,47.6,13.6,30.65,ENE,59,2.9,15.6,25,0.00,,,0.00,VWS V14.00,2013-04-22 15:18:00,
2013-04-22 11:24:00,48.4,14.7,30.65,SSE,148,3.3,15.6,26,0.00,,,0.00,VWS V14.00,2013-04-22 15:24:00,
2013-04-22 11:30:00,48.9,14.4,30.65,SSE,153,9.8,15.6,25,0.00,,,0.00,VWS V14.00,2013-04-22 15:30:00,
2013-04-22 11:36:00,49.3,14.0,30.64,East,82,2.2,15.6,24,0.00,,,0.00,VWS V14.00,2013-04-22 15:36:00,
2013-04-22 11:42:00,49.7,13.4,30.64,ESE,115,0.0,15.6,23,0.00,,,0.00,VWS V14.00,2013-04-22 15:42:00,
2013-04-22 11:48:00,50.2,13.4,30.64,SSE,155,9.7,15.6,23,0.00,,,0.00,VWS V14.00,2013-04-22 15:48:00,
2013-04-22 11:54:00,50.3,12.3,30.64,SE,124,2.7,15.6,21,0.00,,,0.00,VWS V14.00,2013-04-22 15:54:00,
2013-04-22 12:00:00,50.6,12.3,30.63,East,83,5.3,15.6,21,0.00,,,0.00,VWS V14.00,2013-04-22 16:00:00,
2013-04-22 12:06:00,51.1,12.8,30.62,ESE,108,7.0,15.6,21,0.00,,,0.00,VWS V14.00,2013-04-22 16:06:00,
2013-04-22 12:12:00,51.8,12.9,30.62,SE,124,11.8,15.6,21,0.00,,,0.00,VWS V14.00,2013-04-22 16:12:00,
2013-04-22 12:18:00,52.3,12.6,30.62,South,172,7.4,15.6,20,0.00,,,0.00,VWS V14.00,2013-04-22 16:18:00,
2013-04-22 12:24:00,52.8,12.3,30.61,SSE,150,12.0,15.6,20,0.00,,,0.00,VWS V14.00,2013-04-22 16:24:00,
2013-04-22 12:30:00,53.1,10.2,30.60,East,98,0.0,15.6,18,0.00,,,0.00,VWS V14.00,2013-04-22 16:30:00,
2013-04-22 12:36:00,53.3,9.8,30.60,East,86,0.0,15.6,17,0.00,,,0.00,VWS V14.00,2013-04-22 16:36:00,
2013-04-22 12:42:00,53.3,9.4,30.60,ESE,115,3.4,15.6,17,0.00,,,0.00,VWS V14.00,2013-04-22 16:42:00,
2013-04-22 12:48:00,53.4,9.6,30.59,SE,134,5.7,15.6,17,0.00,,,0.00,VWS V14.00,2013-04-22 16:48:00,
2013-04-22 12:54:00,54.0,9.5,30.59,East,80,6.4,15.6,16,0.00,,,0.00,VWS V14.00,2013-04-22 16:54:00,
2013-04-22 13:00:00,54.4,9.9,30.59,NNE,18,3.0,15.6,16,0.00,,,0.00,VWS V14.00,2013-04-22 17:00:00,
2013-04-22 13:06:00,54.7,9.8,30.58,ENE,65,4.9,15.6,16,0.00,,,0.00,VWS V14.00,2013-04-22 17:06:00,
2013-04-22 13:12:00,55.3,9.6,30.58,SSE,165,3.3,15.6,16,0.00,,,0.00,VWS V14.00,2013-04-22 17:12:00,
2013-04-22 13:18:00,55.4,8.5,30.58,South,180,0.0,15.6,15,0.00,,,0.00,VWS V14.00,2013-04-22 17:18:00,
2013-04-22 13:24:00,55.6,7.9,30.58,NNE,21,3.4,15.6,14,0.00,,,0.00,VWS V14.00,2013-04-22 17:24:00,
2013-04-22 13:30:00,55.9,8.0,30.58,NE,45,0.0,15.6,14,0.00,,,0.00,VWS V14.00,2013-04-22 17:30:00,
2013-04-22 13:36:00,56.7,9.1,30.57,South,177,4.9,15.6,15,0.00,,,0.00,VWS V14.00,2013-04-22 17:36:00,
2013-04-22 13:42:00,57.2,9.5,30.57,ESE,117,8.0,15.6,15,0.00,,,0.00,VWS V14.00,2013-04-22 17:42:00,
2013-04-22 13:48:00,57.2,9.2,30.57,SSE,160,3.0,15.6,14,0.00,,,0.00,VWS V14.00,2013-04-22 17:48:00,
2013-04-22 13:54:00,56.6,9.1,30.57,East,84,0.0,15.6,15,0.00,,,0.00,VWS V14.00,2013-04-22 17:54:00,
2013-04-22 14:01:00,56.9,9.1,30.57,South,174,10.6,15.6,15,0.00,,,0.00,VWS V14.00,2013-04-22 18:01:00,
2013-04-22 14:07:00,56.5,9.4,30.57,ESE,114,3.3,15.6,15,0.00,,,0.00,VWS V14.00,2013-04-22 18:07:00,
2013-04-22 14:13:00,57.3,10.8,30.56,SE,136,6.6,15.6,16,0.00,,,0.00,VWS V14.00,2013-04-22 18:13:00,
2013-04-22 14:19:00,57.7,9.9,30.56,ESE,118,4.2,15.6,15,0.00,,,0.00,VWS V14.00,2013-04-22 18:19:00,
2013-04-22 14:25:00,58.2,10.8,30.55,East,90,4.9,15.6,15,0.00,,,0.00,VWS V14.00,2013-04-22 18:25:00,
2013-04-22 14:31:00,58.7,10.7,30.55,ESE,122,4.4,15.6,15,0.00,,,0.00,VWS V14.00,2013-04-22 18:31:00,
2013-04-22 14:37:00,59.4,11.5,30.54,East,94,10.3,15.6,15,0.00,,,0.00,VWS V14.00,2013-04-22 18:37:00,
2013-04-22 14:43:00,59.4,10.4,30.54,ENE,75,3.5,15.6,14,0.00,,,0.00,VWS V14.00,2013-04-22 18:43:00,
2013-04-22 14:49:00,59.5,10.9,30.54,ESE,118,5.0,15.6,14,0.00,,,0.00,VWS V14.00,2013-04-22 18:49:00,
2013-04-22 14:55:00,59.4,10.1,30.54,NNE,31,5.0,15.6,14,0.00,,,0.00,VWS V14.00,2013-04-22 18:55:00,
2013-04-22 15:01:00,59.3,11.8,30.54,ESE,117,3.2,15.6,15,0.00,,,0.00,VWS V14.00,2013-04-22 19:01:00,
2013-04-22 15:07:00,58.7,10.7,30.54,South,169,7.6,15.6,15,0.00,,,0.00,VWS V14.00,2013-04-22 19:07:00,
2013-04-22 15:13:00,58.3,13.3,30.54,ENE,76,0.0,15.6,17,0.00,,,0.00,VWS V14.00,2013-04-22 19:13:00,
2013-04-22 15:19:00,58.8,13.7,30.54,ESE,114,8.6,15.6,17,0.00,,,0.00,VWS V14.00,2013-04-22 19:19:00,
2013-04-22 15:25:00,58.5,12.8,30.53,South,170,3.4,15.6,16,0.00,,,0.00,VWS V14.00,2013-04-22 19:25:00,
2013-04-22 15:31:00,58.2,13.1,30.53,East,101,6.4,15.6,17,0.00,,,0.00,VWS V14.00,2013-04-22 19:31:00,
2013-04-22 15:37:00,58.3,14.0,30.53,ESE,103,7.3,15.6,17,0.00,,,0.00,VWS V14.00,2013-04-22 19:37:00,
2013-04-22 15:43:00,58.5,14.3,30.53,South,170,8.7,15.6,17,0.00,,,0.00,VWS V14.00,2013-04-22 19:43:00,
2013-04-22 15:49:00,58.5,15.0,30.52,NE,42,0.0,15.6,18,0.00,,,0.00,VWS V14.00,2013-04-22 19:49:00,
2013-04-22 15:55:00,58.7,14.9,30.51,ESE,115,5.1,15.6,18,0.00,,,0.00,VWS V14.00,2013-04-22 19:55:00,
2013-04-22 16:01:00,58.8,15.2,30.51,NNE,25,3.2,15.6,18,0.00,,,0.00,VWS V14.00,2013-04-22 20:01:00,
2013-04-22 16:07:00,59.1,15.8,30.51,ESE,118,0.0,15.6,18,0.00,,,0.00,VWS V14.00,2013-04-22 20:07:00,
2013-04-22 16:13:00,59.4,16.0,30.50,South,170,6.1,15.6,18,0.00,,,0.00,VWS V14.00,2013-04-22 20:13:00,
2013-04-22 16:19:00,59.4,15.9,30.50,ESE,121,3.4,15.9,18,0.00,,,0.00,VWS V14.00,2013-04-22 20:19:00,
2013-04-22 16:25:00,59.6,15.6,30.50,ESE,107,6.8,15.9,18,0.00,,,0.00,VWS V14.00,2013-04-22 20:25:00,
2013-04-22 16:31:00,60.1,15.2,30.50,ESE,115,6.4,15.9,17,0.00,,,0.00,VWS V14.00,2013-04-22 20:31:00,
2013-04-22 16:37:00,60.4,14.6,30.50,ESE,104,5.2,15.9,16,0.00,,,0.00,VWS V14.00,2013-04-22 20:37:00,
2013-04-22 16:43:00,60.8,14.9,30.50,ENE,69,4.3,15.9,16,0.00,,,0.00,VWS V14.00,2013-04-22 20:43:00,
2013-04-22 16:49:00,62.3,16.0,30.50,East,101,2.7,15.9,16,0.00,,,0.00,VWS V14.00,2013-04-22 20:49:00,
2013-04-22 16:55:00,65.0,13.9,30.49,NE,56,5.0,15.9,14,0.00,,,0.00,VWS V14.00,2013-04-22 20:55:00,
2013-04-22 17:01:00,67.4,10.9,30.49,East,87,4.5,15.9,11,0.00,,,0.00,VWS V14.00,2013-04-22 21:01:00,
2013-04-22 17:07:00,69.7,8.4,30.49,ESE,120,10.5,15.9,9,0.00,,,0.00,VWS V14.00,2013-04-22 21:07:00,
2013-04-22 17:14:00,70.9,3.5,30.50,NE,44,3.1,15.9,7,0.00,,,0.00,VWS V14.00,2013-04-22 21:14:00,
2013-04-22 17:20:00,70.5,2.8,30.50,ENE,77,9.3,15.9,7,0.00,,,0.00,VWS V14.00,2013-04-22 21:20:00,
2013-04-22 17:26:00,70.5,2.5,30.50,SSE,166,8.1,15.9,7,0.00,,,0.00,VWS V14.00,2013-04-22 21:26:00,
2013-04-22 17:32:00,70.5,2.5,30.50,ESE,103,5.3,15.9,7,0.00,,,0.00,VWS V14.00,2013-04-22 21:32:00,
2013-04-22 17:38:00,70.8,1.8,30.50,NE,52,8.2,15.9,6,0.00,,,0.00,VWS V14.00,2013-04-22 21:38:00,
2013-04-22 17:44:00,68.6,0.2,30.50,East,96,8.2,15.9,6,0.00,,,0.00,VWS V14.00,2013-04-22 21:44:00,
2013-04-22 17:50:00,66.8,-0.2,30.50,ESE,107,6.1,15.9,7,0.00,,,0.00,VWS V14.00,2013-04-22 21:50:00,
2013-04-22 17:56:00,64.8,1.0,30.50,ENE,70,2.5,15.9,8,0.00,,,0.00,VWS V14.00,2013-04-22 21:56:00,
2013-04-22 18:02:00,62.5,2.9,30.50,ESE,115,9.2,15.9,9,0.00,,,0.00,VWS V14.00,2013-04-22 22:02:00,
2013-04-22 18:08:00,60.5,4.3,30.50,East,79,4.8,15.9,10,0.00,,,0.00,VWS V14.00,2013-04-22 22:08:00,
2013-04-22 18:14:00,59.5,6.3,30.50,ESE,108,0.0,15.9,12,0.00,,,0.00,VWS V14.00,2013-04-22 22:14:00,
2013-04-22 18:20:00,59.3,7.8,30.50,East,87,4.5,15.9,13,0.00,,,0.00,VWS V14.00,2013-04-22 22:20:00,
2013-04-22 18:26:00,59.1,8.7,30.50,NE,37,2.6,15.9,13,0.00,,,0.00,VWS V14.00,2013-04-22 22:26:00,
2013-04-22 18:32:00,58.4,8.3,30.50,ENE,69,0.0,15.9,13,0.00,,,0.00,VWS V14.00,2013-04-22 22:32:00,
2013-04-22 18:38:00,57.4,8.9,30.50,East,91,4.5,15.9,14,0.00,,,0.00,VWS V14.00,2013-04-22 22:38:00,
2013-04-22 18:44:00,56.4,9.5,30.50,ESE,110,3.4,15.9,15,0.00,,,0.00,VWS V14.00,2013-04-22 22:44:00,
2013-04-22 18:50:00,55.0,9.8,30.50,North,4,7.3,15.9,16,0.00,,,0.00,VWS V14.00,2013-04-22 22:50:00,
2013-04-22 18:56:00,54.1,10.5,30.50,ESE,117,7.8,15.9,17,0.00,,,0.00,VWS V14.00,2013-04-22 22:56:00,
2013-04-22 19:02:00,53.4,11.5,30.50,ESE,117,0.0,15.9,18,0.00,,,0.00,VWS V14.00,2013-04-22 23:02:00,
2013-04-22 19:08:00,53.1,12.3,30.50,SE,132,4.8,15.9,19,0.00,,,0.00,VWS V14.00,2013-04-22 23:08:00,
2013-04-22 19:14:00,52.8,12.9,30.50,ESE,122,5.3,15.9,20,0.00,,,0.00,VWS V14.00,2013-04-22 23:14:00,
2013-04-22 19:20:00,52.5,12.9,30.50,SE,129,3.0,15.9,20,0.00,,,0.00,VWS V14.00,2013-04-22 23:20:00,
2013-04-22 19:26:00,52.0,12.6,30.51,ESE,103,2.9,15.9,20,0.00,,,0.00,VWS V14.00,2013-04-22 23:26:00,
2013-04-22 19:32:00,51.3,12.6,30.51,ENE,63,0.0,15.9,21,0.00,,,0.00,VWS V14.00,2013-04-22 23:32:00,
2013-04-22 19:38:00,50.7,12.9,30.51,ESE,110,0.0,15.9,22,0.00,,,0.00,VWS V14.00,2013-04-22 23:38:00,
2013-04-22 19:44:00,49.9,13.0,30.51,East,91,3.2,15.9,22,0.00,,,0.00,VWS V14.00,2013-04-22 23:44:00,
2013-04-22 19:50:00,49.2,13.4,30.52,SE,139,2.2,15.9,23,0.00,,,0.00,VWS V14.00,2013-04-22 23:50:00,
2013-04-22 19:56:00,48.5,13.2,30.51,East,79,4.2,15.9,24,0.00,,,0.00,VWS V14.00,2013-04-22 23:56:00,
2013-04-22 20:02:00,47.9,13.2,30.52,ESE,108,4.7,15.9,24,0.00,,,0.00,VWS V14.00,2013-04-23 00:02:00,
2013-04-22 20:08:00,47.3,13.1,30.51,East,91,1.6,15.9,25,0.00,,,0.00,VWS V14.00,2013-04-23 00:08:00,
2013-04-22 20:14:00,46.9,13.6,30.52,ESE,111,4.8,15.9,26,0.00,,,0.00,VWS V14.00,2013-04-23 00:14:00,
2013-04-22 20:20:00,46.4,13.7,30.52,East,96,0.0,15.9,26,0.00,,,0.00,VWS V14.00,2013-04-23 00:20:00,
2013-04-22 20:27:00,46.0,13.9,30.52,East,79,3.3,15.9,27,0.00,,,0.00,VWS V14.00,2013-04-23 00:27:00,
2013-04-22 20:33:00,45.8,14.1,30.52,East,83,3.0,15.9,28,0.00,,,0.00,VWS V14.00,2013-04-23 00:33:00,
2013-04-22 20:39:00,45.4,14.3,30.52,SSE,153,2.6,15.9,28,0.00,,,0.00,VWS V14.00,2013-04-23 00:39:00,
2013-04-22 20:45:00,45.1,14.9,30.52,South,176,8.0,15.9,29,0.00,,,0.00,VWS V14.00,2013-04-23 00:45:00,
2013-04-22 20:51:00,44.9,15.2,30.52,South,169,5.1,15.9,30,0.00,,,0.00,VWS V14.00,2013-04-23 00:51:00,
2013-04-22 20:57:00,44.6,15.4,30.52,SSE,149,5.0,15.9,30,0.00,,,0.00,VWS V14.00,2013-04-23 00:57:00,
2013-04-22 21:03:00,44.2,15.4,30.52,SSE,148,5.2,15.9,31,0.00,,,0.00,VWS V14.00,2013-04-23 01:03:00,
2013-04-22 21:09:00,44.1,15.4,30.52,SE,134,7.9,15.9,31,0.00,,,0.00,VWS V14.00,2013-04-23 01:09:00,
2013-04-22 21:15:00,43.9,15.5,30.52,SE,124,7.4,15.9,31,0.00,,,0.00,VWS V14.00,2013-04-23 01:15:00,
2013-04-22 21:21:00,43.7,15.4,30.52,ESE,121,7.1,15.9,31,0.00,,,0.00,VWS V14.00,2013-04-23 01:21:00,
2013-04-22 21:27:00,43.4,15.4,30.52,ESE,111,10.6,15.9,32,0.00,,,0.00,VWS V14.00,2013-04-23 01:27:00,
2013-04-22 21:33:00,43.1,15.7,30.52,ENE,69,5.7,15.9,33,0.00,,,0.00,VWS V14.00,2013-04-23 01:33:00,
2013-04-22 21:39:00,42.8,15.7,30.52,ESE,103,3.4,15.9,33,0.00,,,0.00,VWS V14.00,2013-04-23 01:39:00,
2013-04-22 21:45:00,42.5,15.8,30.52,ESE,111,4.6,15.9,34,0.00,,,0.00,VWS V14.00,2013-04-23 01:45:00,
2013-04-22 21:51:00,42.2,15.9,30.51,ESE,107,4.9,15.9,34,0.00,,,0.00,VWS V14.00,2013-04-23 01:51:00,
2013-04-22 21:57:00,42.1,16.4,30.52,SE,124,4.9,15.9,35,0.00,,,0.00,VWS V14.00,2013-04-23 01:57:00,
2013-04-22 22:03:00,41.7,17.0,30.52,ESE,122,2.9,15.9,36,0.00,,,0.00,VWS V14.00,2013-04-23 02:03:00,
2013-04-22 22:09:00,41.6,17.7,30.51,South,170,3.5,15.9,38,0.00,,,0.00,VWS V14.00,2013-04-23 02:09:00,
2013-04-22 22:15:00,41.4,18.1,30.51,SSE,167,8.2,15.9,39,0.00,,,0.00,VWS V14.00,2013-04-23 02:15:00,
2013-04-22 22:21:00,41.0,19.2,30.51,SE,132,6.1,15.9,41,0.00,,,0.00,VWS V14.00,2013-04-23 02:21:00,
2013-04-22 22:27:00,40.8,19.9,30.52,ESE,111,5.2,15.9,43,0.00,,,0.00,VWS V14.00,2013-04-23 02:27:00,
2013-04-22 22:33:00,40.4,20.1,30.51,ESE,111,5.7,15.9,44,0.00,,,0.00,VWS V14.00,2013-04-23 02:33:00,
2013-04-22 22:39:00,40.2,20.7,30.51,ESE,115,6.8,15.9,45,0.00,,,0.00,VWS V14.00,2013-04-23 02:39:00,
2013-04-22 22:45:00,40.2,21.3,30.51,SSE,162,0.0,15.9,46,0.00,,,0.00,VWS V14.00,2013-04-23 02:45:00,
2013-04-22 22:51:00,39.9,21.6,30.50,East,83,0.0,15.9,48,0.00,,,0.00,VWS V14.00,2013-04-23 02:51:00,
2013-04-22 22:57:00,39.7,21.8,30.50,ESE,120,0.0,15.9,48,0.00,,,0.00,VWS V14.00,2013-04-23 02:57:00,
2013-04-22 23:03:00,39.5,22.0,30.50,ESE,103,0.0,15.9,49,0.00,,,0.00,VWS V14.00,2013-04-23 03:03:00,
2013-04-22 23:09:00,39.4,22.2,30.50,SSE,153,3.2,15.9,50,0.00,,,0.00,VWS V14.00,2013-04-23 03:09:00,
2013-04-22 23:15:00,39.1,22.1,30.50,ESE,103,2.8,15.9,50,0.00,,,0.00,VWS V14.00,2013-04-23 03:15:00,
2013-04-22 23:21:00,38.8,22.1,30.50,ESE,115,0.0,15.9,51,0.00,,,0.00,VWS V14.00,2013-04-23 03:21:00,
2013-04-22 23:27:00,38.6,22.0,30.50,East,80,0.0,15.9,51,0.00,,,0.00,VWS V14.00,2013-04-23 03:27:00,
2013-04-22 23:33:00,38.5,22.1,30.50,ESE,111,0.0,15.9,51,0.00,,,0.00,VWS V14.00,2013-04-23 03:33:00,
2013-04-22 23:40:00,38.4,22.5,30.49,SE,143,5.8,15.9,52,0.00,,,0.00,VWS V14.00,2013-04-23 03:40:00,
2013-04-22 23:46:00,38.3,22.7,30.49,East,89,5.5,15.9,53,0.00,,,0.00,VWS V14.00,2013-04-23 03:46:00,
2013-04-22 23:50:00,32.5,16.2,30.60,South,169,2.9,15.8,50,0.00,,,0.00,VWS V14.00,2013-04-23 03:50:00,
2013-04-22 23:52:00,37.9,22.6,30.49,SSE,165,4.6,12.4,54,0.00,,,0.00,VWS V14.00,2013-04-23 03:52:00,
2013-04-22 23:58:00,37.8,22.7,30.49,ESE,121,4.5,7.5,54,0.00,,,0.00,VWS V14.00,2013-04-23 03:58:00,